Goldsboro, North Carolina
Current Conditions -  °F | °C
As of 12:58 PM on Sunday 21 Dec 2014 (Local Time) from KGSB Reporting Station
Overcast Overcast  
Wind Chill: 42°   Ceiling: 5000
Heat Index: 45°   Visibility: 10mi
Dew Point: 40°   Wind: 7mph
Humidity: 82%   Direction: 30°NNE
Pressure: 30.25"   Gusts: NA
Location:  35.39°N, 77.99°W
Report Text: KGSB 211758Z AUTO 03006KT 10SM OVC050 07/05 A3025 RMK AO2 SLP247 T00740045 10074 21006 57024 $
Loading
Personal Weather Stations






























Interactive Weather Map New forecast layout! Learn more

10-Day Weather Forecast

Advertisements
Track Severe Weather on mobile